sensor_id;sensor_type;location;lat;lon;timestamp;P1;durP1;ratioP1;P2;durP2;ratioP2
19219;SDS011;9744;49.364;7.484;2023-01-26T00:00:50;18.65;;;9.05;;
19219;SDS011;9744;49.364;7.484;2023-01-26T00:03:18;19.98;;;10.07;;
19219;SDS011;9744;49.364;7.484;2023-01-26T00:05:46;20.42;;;9.23;;
19219;SDS011;9744;49.364;7.484;2023-01-26T00:08:13;18.05;;;8.82;;
19219;SDS011;9744;49.364;7.484;2023-01-26T00:10:40;17.58;;;9.10;;
19219;SDS011;9744;49.364;7.484;2023-01-26T00:13:16;22.92;;;10.27;;
19219;SDS011;9744;49.364;7.484;2023-01-26T00:15:44;24.00;;;10.68;;
19219;SDS011;9744;49.364;7.484;2023-01-26T00:18:12;20.25;;;9.60;;
19219;SDS011;9744;49.364;7.484;2023-01-26T00:20:39;19.40;;;9.13;;
19219;SDS011;9744;49.364;7.484;2023-01-26T00:23:06;19.95;;;9.82;;
19219;SDS011;9744;49.364;7.484;2023-01-26T00:25:36;19.77;;;9.60;;
19219;SDS011;9744;49.364;7.484;2023-01-26T00:28:05;20.55;;;10.00;;
19219;SDS011;9744;49.364;7.484;2023-01-26T00:30:34;65.53;;;10.95;;
19219;SDS011;9744;49.364;7.484;2023-01-26T00:33:01;18.75;;;9.00;;
19219;SDS011;9744;49.364;7.484;2023-01-26T00:35:28;274.08;;;13.77;;
19219;SDS011;9744;49.364;7.484;2023-01-26T00:37:55;20.70;;;9.52;;
19219;SDS011;9744;49.364;7.484;2023-01-26T00:40:23;16.65;;;8.25;;
19219;SDS011;9744;49.364;7.484;2023-01-26T00:42:50;27.25;;;9.25;;
19219;SDS011;9744;49.364;7.484;2023-01-26T00:45:18;17.33;;;8.25;;
19219;SDS011;9744;49.364;7.484;2023-01-26T00:47:47;19.20;;;8.52;;
19219;SDS011;9744;49.364;7.484;2023-01-26T00:50:14;18.70;;;8.10;;
19219;SDS011;9744;49.364;7.484;2023-01-26T00:52:42;18.13;;;9.20;;
19219;SDS011;9744;49.364;7.484;2023-01-26T00:55:09;17.52;;;8.35;;
19219;SDS011;9744;49.364;7.484;2023-01-26T00:57:39;19.95;;;8.80;;
19219;SDS011;9744;49.364;7.484;2023-01-26T01:00:07;18.48;;;8.43;;
19219;SDS011;9744;49.364;7.484;2023-01-26T01:02:37;18.33;;;8.95;;
19219;SDS011;9744;49.364;7.484;2023-01-26T01:05:06;16.35;;;7.85;;
19219;SDS011;9744;49.364;7.484;2023-01-26T01:07:34;17.83;;;8.93;;
19219;SDS011;9744;49.364;7.484;2023-01-26T01:10:01;15.13;;;7.75;;
19219;SDS011;9744;49.364;7.484;2023-01-26T01:12:31;16.98;;;8.48;;
19219;SDS011;9744;49.364;7.484;2023-01-26T01:14:58;13.88;;;7.85;;
19219;SDS011;9744;49.364;7.484;2023-01-26T01:17:26;17.30;;;8.70;;
19219;SDS011;9744;49.364;7.484;2023-01-26T01:19:54;16.52;;;8.00;;
19219;SDS011;9744;49.364;7.484;2023-01-26T01:22:22;16.38;;;8.25;;
19219;SDS011;9744;49.364;7.484;2023-01-26T01:24:51;16.55;;;8.10;;
19219;SDS011;9744;49.364;7.484;2023-01-26T01:27:18;19.70;;;9.45;;
19219;SDS011;9744;49.364;7.484;2023-01-26T01:29:45;20.13;;;9.60;;
19219;SDS011;9744;49.364;7.484;2023-01-26T01:32:12;19.42;;;8.90;;
19219;SDS011;9744;49.364;7.484;2023-01-26T01:34:39;24.10;;;9.88;;
19219;SDS011;9744;49.364;7.484;2023-01-26T01:37:07;19.02;;;8.80;;
19219;SDS011;9744;49.364;7.484;2023-01-26T01:39:35;21.40;;;9.77;;
19219;SDS011;9744;49.364;7.484;2023-01-26T01:42:03;20.77;;;8.98;;
19219;SDS011;9744;49.364;7.484;2023-01-26T01:44:30;19.02;;;8.85;;
19219;SDS011;9744;49.364;7.484;2023-01-26T01:46:58;18.73;;;9.90;;
19219;SDS011;9744;49.364;7.484;2023-01-26T01:49:28;17.98;;;8.15;;
19219;SDS011;9744;49.364;7.484;2023-01-26T01:51:58;18.00;;;8.13;;
19219;SDS011;9744;49.364;7.484;2023-01-26T01:54:32;15.50;;;7.55;;
19219;SDS011;9744;49.364;7.484;2023-01-26T01:57:06;18.17;;;8.18;;
19219;SDS011;9744;49.364;7.484;2023-01-26T01:59:42;16.48;;;7.57;;
19219;SDS011;9744;49.364;7.484;2023-01-26T02:02:15;17.75;;;8.48;;
19219;SDS011;9744;49.364;7.484;2023-01-26T02:04:42;240.93;;;14.48;;
19219;SDS011;9744;49.364;7.484;2023-01-26T02:07:09;16.83;;;8.13;;
19219;SDS011;9744;49.364;7.484;2023-01-26T02:09:39;17.17;;;8.13;;
19219;SDS011;9744;49.364;7.484;2023-01-26T02:12:26;16.27;;;7.45;;
19219;SDS011;9744;49.364;7.484;2023-01-26T02:14:56;18.05;;;8.93;;
19219;SDS011;9744;49.364;7.484;2023-01-26T02:17:25;12.75;;;7.20;;
19219;SDS011;9744;49.364;7.484;2023-01-26T02:19:55;15.75;;;7.82;;
19219;SDS011;9744;49.364;7.484;2023-01-26T02:22:32;16.33;;;7.90;;
19219;SDS011;9744;49.364;7.484;2023-01-26T02:27:52;14.07;;;7.32;;
19219;SDS011;9744;49.364;7.484;2023-01-26T02:30:20;14.20;;;7.32;;
19219;SDS011;9744;49.364;7.484;2023-01-26T02:32:49;16.70;;;7.00;;
19219;SDS011;9744;49.364;7.484;2023-01-26T02:35:17;14.88;;;7.82;;
19219;SDS011;9744;49.364;7.484;2023-01-26T02:37:45;14.27;;;7.28;;
19219;SDS011;9744;49.364;7.484;2023-01-26T02:40:15;13.52;;;6.85;;
19219;SDS011;9744;49.364;7.484;2023-01-26T02:42:52;13.35;;;7.25;;
19219;SDS011;9744;49.364;7.484;2023-01-26T02:45:20;13.02;;;6.88;;
19219;SDS011;9744;49.364;7.484;2023-01-26T02:47:48;14.25;;;7.22;;
19219;SDS011;9744;49.364;7.484;2023-01-26T02:50:16;14.50;;;7.13;;
19219;SDS011;9744;49.364;7.484;2023-01-26T02:52:43;14.27;;;7.25;;
19219;SDS011;9744;49.364;7.484;2023-01-26T02:55:18;14.43;;;7.05;;
19219;SDS011;9744;49.364;7.484;2023-01-26T02:57:50;13.60;;;6.82;;
19219;SDS011;9744;49.364;7.484;2023-01-26T03:00:23;13.02;;;6.13;;
19219;SDS011;9744;49.364;7.484;2023-01-26T03:02:52;12.90;;;6.82;;
19219;SDS011;9744;49.364;7.484;2023-01-26T03:05:23;12.18;;;6.38;;
19219;SDS011;9744;49.364;7.484;2023-01-26T03:07:51;11.60;;;6.38;;
19219;SDS011;9744;49.364;7.484;2023-01-26T03:10:21;10.90;;;6.18;;
19219;SDS011;9744;49.364;7.484;2023-01-26T03:12:52;9.73;;;5.30;;
19219;SDS011;9744;49.364;7.484;2023-01-26T03:15:20;9.88;;;5.55;;
19219;SDS011;9744;49.364;7.484;2023-01-26T03:18:06;10.48;;;5.63;;
19219;SDS011;9744;49.364;7.484;2023-01-26T03:21:01;10.93;;;5.65;;
19219;SDS011;9744;49.364;7.484;2023-01-26T03:23:48;11.85;;;5.85;;
19219;SDS011;9744;49.364;7.484;2023-01-26T03:26:33;11.85;;;5.97;;
19219;SDS011;9744;49.364;7.484;2023-01-26T03:29:20;10.75;;;5.72;;
19219;SDS011;9744;49.364;7.484;2023-01-26T03:31:48;12.82;;;6.68;;
19219;SDS011;9744;49.364;7.484;2023-01-26T03:34:16;14.25;;;6.60;;
19219;SDS011;9744;49.364;7.484;2023-01-26T03:36:45;12.32;;;6.38;;
19219;SDS011;9744;49.364;7.484;2023-01-26T03:39:15;12.75;;;6.03;;
19219;SDS011;9744;49.364;7.484;2023-01-26T03:41:57;11.05;;;5.63;;
19219;SDS011;9744;49.364;7.484;2023-01-26T03:44:43;8.77;;;4.90;;
19219;SDS011;9744;49.364;7.484;2023-01-26T03:47:30;10.30;;;5.47;;
19219;SDS011;9744;49.364;7.484;2023-01-26T03:50:15;10.85;;;5.15;;
19219;SDS011;9744;49.364;7.484;2023-01-26T03:53:00;10.65;;;5.55;;
19219;SDS011;9744;49.364;7.484;2023-01-26T03:55:46;12.40;;;5.55;;
19219;SDS011;9744;49.364;7.484;2023-01-26T03:58:32;10.82;;;5.72;;
19219;SDS011;9744;49.364;7.484;2023-01-26T04:01:01;10.30;;;5.53;;
19219;SDS011;9744;49.364;7.484;2023-01-26T04:03:31;10.27;;;5.10;;
19219;SDS011;9744;49.364;7.484;2023-01-26T04:06:16;8.20;;;4.53;;
19219;SDS011;9744;49.364;7.484;2023-01-26T04:09:02;8.32;;;4.85;;
19219;SDS011;9744;49.364;7.484;2023-01-26T04:11:29;8.65;;;4.72;;
19219;SDS011;9744;49.364;7.484;2023-01-26T04:13:57;11.90;;;5.38;;
19219;SDS011;9744;49.364;7.484;2023-01-26T04:16:43;9.35;;;4.47;;
19219;SDS011;9744;49.364;7.484;2023-01-26T04:19:28;9.50;;;4.70;;
19219;SDS011;9744;49.364;7.484;2023-01-26T04:22:13;9.23;;;4.40;;
19219;SDS011;9744;49.364;7.484;2023-01-26T04:24:44;10.57;;;5.07;;
19219;SDS011;9744;49.364;7.484;2023-01-26T04:27:12;9.07;;;4.22;;
19219;SDS011;9744;49.364;7.484;2023-01-26T04:29:40;8.80;;;4.25;;
19219;SDS011;9744;49.364;7.484;2023-01-26T04:32:09;10.77;;;4.43;;
19219;SDS011;9744;49.364;7.484;2023-01-26T04:34:36;9.73;;;5.38;;
19219;SDS011;9744;49.364;7.484;2023-01-26T04:37:11;8.98;;;5.00;;
19219;SDS011;9744;49.364;7.484;2023-01-26T04:39:44;10.25;;;5.10;;
19219;SDS011;9744;49.364;7.484;2023-01-26T04:42:11;8.88;;;4.90;;
19219;SDS011;9744;49.364;7.484;2023-01-26T04:44:39;11.27;;;5.72;;
19219;SDS011;9744;49.364;7.484;2023-01-26T04:47:09;11.20;;;4.82;;
19219;SDS011;9744;49.364;7.484;2023-01-26T04:49:37;10.05;;;4.97;;
19219;SDS011;9744;49.364;7.484;2023-01-26T04:52:05;7.68;;;4.40;;
19219;SDS011;9744;49.364;7.484;2023-01-26T04:54:33;10.43;;;4.90;;
19219;SDS011;9744;49.364;7.484;2023-01-26T04:57:01;9.80;;;5.55;;
19219;SDS011;9744;49.364;7.484;2023-01-26T04:59:29;9.13;;;4.95;;
19219;SDS011;9744;49.364;7.484;2023-01-26T05:01:59;10.30;;;4.95;;
19219;SDS011;9744;49.364;7.484;2023-01-26T05:04:29;11.90;;;5.07;;
19219;SDS011;9744;49.364;7.484;2023-01-26T05:06:57;9.98;;;5.05;;
19219;SDS011;9744;49.364;7.484;2023-01-26T05:09:25;11.10;;;5.47;;
19219;SDS011;9744;49.364;7.484;2023-01-26T05:12:11;10.35;;;4.95;;
19219;SDS011;9744;49.364;7.484;2023-01-26T05:15:15;9.85;;;5.53;;
19219;SDS011;9744;49.364;7.484;2023-01-26T05:18:03;11.07;;;5.53;;
19219;SDS011;9744;49.364;7.484;2023-01-26T05:20:59;9.30;;;4.88;;
19219;SDS011;9744;49.364;7.484;2023-01-26T05:23:33;9.95;;;5.00;;
19219;SDS011;9744;49.364;7.484;2023-01-26T05:26:13;9.52;;;5.10;;
19219;SDS011;9744;49.364;7.484;2023-01-26T05:28:53;13.02;;;5.80;;
19219;SDS011;9744;49.364;7.484;2023-01-26T05:31:21;10.95;;;5.85;;
19219;SDS011;9744;49.364;7.484;2023-01-26T05:33:49;11.35;;;6.13;;
19219;SDS011;9744;49.364;7.484;2023-01-26T05:36:22;27.63;;;12.45;;
19219;SDS011;9744;49.364;7.484;2023-01-26T05:38:50;23.60;;;10.68;;
19219;SDS011;9744;49.364;7.484;2023-01-26T05:41:24;19.83;;;9.85;;
19219;SDS011;9744;49.364;7.484;2023-01-26T05:44:10;17.92;;;8.45;;
19219;SDS011;9744;49.364;7.484;2023-01-26T05:46:44;14.05;;;7.43;;
19219;SDS011;9744;49.364;7.484;2023-01-26T05:49:11;17.73;;;7.53;;
19219;SDS011;9744;49.364;7.484;2023-01-26T05:51:41;17.52;;;8.23;;
19219;SDS011;9744;49.364;7.484;2023-01-26T05:54:08;15.65;;;7.75;;
19219;SDS011;9744;49.364;7.484;2023-01-26T05:56:36;14.85;;;7.43;;
19219;SDS011;9744;49.364;7.484;2023-01-26T05:59:06;17.13;;;7.95;;
19219;SDS011;9744;49.364;7.484;2023-01-26T06:01:33;15.52;;;7.75;;
19219;SDS011;9744;49.364;7.484;2023-01-26T06:04:05;11.90;;;6.30;;
19219;SDS011;9744;49.364;7.484;2023-01-26T06:06:41;12.52;;;6.55;;
19219;SDS011;9744;49.364;7.484;2023-01-26T06:09:35;12.40;;;6.78;;
19219;SDS011;9744;49.364;7.484;2023-01-26T06:12:11;12.45;;;6.63;;
19219;SDS011;9744;49.364;7.484;2023-01-26T06:14:58;13.90;;;6.63;;
19219;SDS011;9744;49.364;7.484;2023-01-26T06:17:38;14.50;;;7.35;;
19219;SDS011;9744;49.364;7.484;2023-01-26T06:20:08;15.63;;;7.38;;
19219;SDS011;9744;49.364;7.484;2023-01-26T06:22:38;15.90;;;6.97;;
19219;SDS011;9744;49.364;7.484;2023-01-26T06:25:06;12.95;;;6.28;;
19219;SDS011;9744;49.364;7.484;2023-01-26T06:27:34;15.20;;;6.95;;
19219;SDS011;9744;49.364;7.484;2023-01-26T06:30:11;14.35;;;7.60;;
19219;SDS011;9744;49.364;7.484;2023-01-26T06:32:40;16.45;;;8.40;;
19219;SDS011;9744;49.364;7.484;2023-01-26T06:35:08;19.30;;;9.45;;
19219;SDS011;9744;49.364;7.484;2023-01-26T06:37:38;27.38;;;12.88;;
19219;SDS011;9744;49.364;7.484;2023-01-26T06:40:07;26.23;;;12.38;;
19219;SDS011;9744;49.364;7.484;2023-01-26T06:42:36;27.95;;;13.23;;
19219;SDS011;9744;49.364;7.484;2023-01-26T06:45:04;26.75;;;11.68;;
19219;SDS011;9744;49.364;7.484;2023-01-26T06:47:33;27.85;;;11.85;;
19219;SDS011;9744;49.364;7.484;2023-01-26T06:50:00;20.38;;;10.57;;
19219;SDS011;9744;49.364;7.484;2023-01-26T06:52:30;23.80;;;9.35;;
19219;SDS011;9744;49.364;7.484;2023-01-26T06:55:08;20.23;;;9.10;;
19219;SDS011;9744;49.364;7.484;2023-01-26T06:57:58;17.90;;;8.20;;
19219;SDS011;9744;49.364;7.484;2023-01-26T07:00:54;17.80;;;7.95;;
19219;SDS011;9744;49.364;7.484;2023-01-26T07:06:15;13.30;;;6.65;;
19219;SDS011;9744;49.364;7.484;2023-01-26T07:08:43;16.48;;;7.30;;
19219;SDS011;9744;49.364;7.484;2023-01-26T07:11:12;13.45;;;6.85;;
19219;SDS011;9744;49.364;7.484;2023-01-26T07:13:40;15.05;;;7.90;;
19219;SDS011;9744;49.364;7.484;2023-01-26T07:16:09;14.10;;;6.88;;
19219;SDS011;9744;49.364;7.484;2023-01-26T07:18:37;18.10;;;7.22;;
19219;SDS011;9744;49.364;7.484;2023-01-26T07:21:06;14.73;;;6.85;;
19219;SDS011;9744;49.364;7.484;2023-01-26T07:23:36;12.93;;;6.50;;
19219;SDS011;9744;49.364;7.484;2023-01-26T07:26:04;13.77;;;6.45;;
19219;SDS011;9744;49.364;7.484;2023-01-26T07:28:33;15.02;;;6.88;;
19219;SDS011;9744;49.364;7.484;2023-01-26T07:31:01;12.30;;;6.13;;
19219;SDS011;9744;49.364;7.484;2023-01-26T07:33:30;12.25;;;6.50;;
19219;SDS011;9744;49.364;7.484;2023-01-26T07:35:59;11.32;;;5.80;;
19219;SDS011;9744;49.364;7.484;2023-01-26T07:38:27;12.23;;;6.07;;
19219;SDS011;9744;49.364;7.484;2023-01-26T07:40:55;9.93;;;5.60;;
19219;SDS011;9744;49.364;7.484;2023-01-26T07:43:23;11.68;;;6.60;;
19219;SDS011;9744;49.364;7.484;2023-01-26T07:45:55;12.57;;;5.45;;
19219;SDS011;9744;49.364;7.484;2023-01-26T07:48:23;26.50;;;11.15;;
19219;SDS011;9744;49.364;7.484;2023-01-26T07:50:50;35.88;;;15.85;;
19219;SDS011;9744;49.364;7.484;2023-01-26T07:53:18;44.35;;;20.13;;
19219;SDS011;9744;49.364;7.484;2023-01-26T07:55:47;34.35;;;14.70;;
19219;SDS011;9744;49.364;7.484;2023-01-26T07:58:15;29.63;;;11.93;;
19219;SDS011;9744;49.364;7.484;2023-01-26T08:00:43;20.10;;;9.23;;
19219;SDS011;9744;49.364;7.484;2023-01-26T08:03:13;17.85;;;8.07;;
19219;SDS011;9744;49.364;7.484;2023-01-26T08:05:41;14.05;;;6.32;;
19219;SDS011;9744;49.364;7.484;2023-01-26T08:08:08;14.75;;;6.68;;
19219;SDS011;9744;49.364;7.484;2023-01-26T08:10:36;13.02;;;6.28;;
19219;SDS011;9744;49.364;7.484;2023-01-26T08:13:04;13.63;;;6.60;;
19219;SDS011;9744;49.364;7.484;2023-01-26T08:15:32;12.52;;;6.35;;
19219;SDS011;9744;49.364;7.484;2023-01-26T08:18:00;10.48;;;5.28;;
19219;SDS011;9744;49.364;7.484;2023-01-26T08:20:30;9.98;;;5.20;;
19219;SDS011;9744;49.364;7.484;2023-01-26T08:22:58;14.15;;;6.72;;
19219;SDS011;9744;49.364;7.484;2023-01-26T08:25:26;11.25;;;5.85;;
19219;SDS011;9744;49.364;7.484;2023-01-26T08:27:53;13.90;;;7.32;;
19219;SDS011;9744;49.364;7.484;2023-01-26T08:30:21;13.45;;;6.55;;
19219;SDS011;9744;49.364;7.484;2023-01-26T08:32:48;14.70;;;7.50;;
19219;SDS011;9744;49.364;7.484;2023-01-26T08:35:16;15.13;;;6.93;;
19219;SDS011;9744;49.364;7.484;2023-01-26T08:37:45;11.93;;;6.22;;
19219;SDS011;9744;49.364;7.484;2023-01-26T08:40:13;11.65;;;6.43;;
19219;SDS011;9744;49.364;7.484;2023-01-26T08:42:41;9.60;;;5.60;;
19219;SDS011;9744;49.364;7.484;2023-01-26T08:45:09;12.98;;;6.22;;
19219;SDS011;9744;49.364;7.484;2023-01-26T08:47:37;9.82;;;5.43;;
19219;SDS011;9744;49.364;7.484;2023-01-26T08:50:04;8.50;;;5.15;;
19219;SDS011;9744;49.364;7.484;2023-01-26T08:52:32;10.93;;;5.25;;
19219;SDS011;9744;49.364;7.484;2023-01-26T08:55:01;9.60;;;5.10;;
19219;SDS011;9744;49.364;7.484;2023-01-26T08:57:29;9.40;;;5.43;;
19219;SDS011;9744;49.364;7.484;2023-01-26T08:59:57;8.75;;;5.32;;
19219;SDS011;9744;49.364;7.484;2023-01-26T09:02:25;8.65;;;4.95;;
19219;SDS011;9744;49.364;7.484;2023-01-26T09:04:53;11.63;;;5.85;;
19219;SDS011;9744;49.364;7.484;2023-01-26T09:07:20;10.18;;;5.50;;
19219;SDS011;9744;49.364;7.484;2023-01-26T09:09:48;14.93;;;6.57;;
19219;SDS011;9744;49.364;7.484;2023-01-26T09:12:16;12.57;;;6.10;;
19219;SDS011;9744;49.364;7.484;2023-01-26T09:14:44;11.82;;;6.75;;
19219;SDS011;9744;49.364;7.484;2023-01-26T09:17:11;12.00;;;6.43;;
19219;SDS011;9744;49.364;7.484;2023-01-26T09:19:39;10.57;;;5.70;;
19219;SDS011;9744;49.364;7.484;2023-01-26T09:22:06;10.57;;;5.40;;
19219;SDS011;9744;49.364;7.484;2023-01-26T09:24:34;12.13;;;6.95;;
19219;SDS011;9744;49.364;7.484;2023-01-26T09:27:02;9.68;;;5.70;;
19219;SDS011;9744;49.364;7.484;2023-01-26T09:29:31;10.95;;;5.68;;
19219;SDS011;9744;49.364;7.484;2023-01-26T09:31:58;10.70;;;5.75;;
19219;SDS011;9744;49.364;7.484;2023-01-26T09:34:26;11.63;;;5.93;;
19219;SDS011;9744;49.364;7.484;2023-01-26T09:36:53;13.93;;;6.65;;
19219;SDS011;9744;49.364;7.484;2023-01-26T09:39:22;12.35;;;6.00;;
19219;SDS011;9744;49.364;7.484;2023-01-26T09:41:52;12.88;;;6.47;;
19219;SDS011;9744;49.364;7.484;2023-01-26T09:44:39;11.23;;;6.05;;
19219;SDS011;9744;49.364;7.484;2023-01-26T09:47:16;9.38;;;5.82;;
19219;SDS011;9744;49.364;7.484;2023-01-26T09:49:53;9.27;;;5.40;;
19219;SDS011;9744;49.364;7.484;2023-01-26T09:52:25;13.52;;;7.10;;
19219;SDS011;9744;49.364;7.484;2023-01-26T09:57:59;11.27;;;6.50;;
19219;SDS011;9744;49.364;7.484;2023-01-26T10:00:31;8.52;;;5.15;;
19219;SDS011;9744;49.364;7.484;2023-01-26T10:05:53;11.00;;;5.53;;
19219;SDS011;9744;49.364;7.484;2023-01-26T10:08:38;10.73;;;6.07;;
19219;SDS011;9744;49.364;7.484;2023-01-26T10:11:11;8.60;;;5.45;;
19219;SDS011;9744;49.364;7.484;2023-01-26T10:13:45;9.45;;;5.40;;
19219;SDS011;9744;49.364;7.484;2023-01-26T10:19:15;9.10;;;5.28;;
19219;SDS011;9744;49.364;7.484;2023-01-26T10:21:53;7.93;;;4.90;;
19219;SDS011;9744;49.364;7.484;2023-01-26T10:24:23;7.13;;;4.35;;
19219;SDS011;9744;49.364;7.484;2023-01-26T10:26:52;8.48;;;5.15;;
19219;SDS011;9744;49.364;7.484;2023-01-26T10:29:22;11.05;;;5.68;;
19219;SDS011;9744;49.364;7.484;2023-01-26T10:31:50;10.13;;;5.95;;
19219;SDS011;9744;49.364;7.484;2023-01-26T10:34:23;11.02;;;5.95;;
19219;SDS011;9744;49.364;7.484;2023-01-26T10:36:55;8.85;;;5.68;;
19219;SDS011;9744;49.364;7.484;2023-01-26T10:39:31;11.35;;;6.65;;
19219;SDS011;9744;49.364;7.484;2023-01-26T10:41:59;11.88;;;7.10;;
19219;SDS011;9744;49.364;7.484;2023-01-26T10:44:32;10.82;;;6.38;;
19219;SDS011;9744;49.364;7.484;2023-01-26T10:49:51;11.98;;;6.80;;
19219;SDS011;9744;49.364;7.484;2023-01-26T10:52:39;12.70;;;6.80;;
19219;SDS011;9744;49.364;7.484;2023-01-26T10:55:23;12.07;;;6.50;;
19219;SDS011;9744;49.364;7.484;2023-01-26T10:57:51;11.95;;;6.25;;
19219;SDS011;9744;49.364;7.484;2023-01-26T11:00:21;12.93;;;5.75;;
19219;SDS011;9744;49.364;7.484;2023-01-26T11:02:53;10.13;;;5.70;;
19219;SDS011;9744;49.364;7.484;2023-01-26T11:05:27;11.15;;;6.07;;
19219;SDS011;9744;49.364;7.484;2023-01-26T11:07:55;9.27;;;5.35;;
19219;SDS011;9744;49.364;7.484;2023-01-26T11:10:26;11.20;;;6.38;;
19219;SDS011;9744;49.364;7.484;2023-01-26T11:13:06;10.55;;;5.75;;
19219;SDS011;9744;49.364;7.484;2023-01-26T11:15:39;11.68;;;6.72;;
19219;SDS011;9744;49.364;7.484;2023-01-26T11:18:15;12.90;;;7.15;;
19219;SDS011;9744;49.364;7.484;2023-01-26T11:20:52;17.88;;;11.77;;
19219;SDS011;9744;49.364;7.484;2023-01-26T11:23:27;19.42;;;15.18;;
19219;SDS011;9744;49.364;7.484;2023-01-26T11:29:00;20.45;;;14.95;;
19219;SDS011;9744;49.364;7.484;2023-01-26T11:31:40;16.92;;;11.77;;
19219;SDS011;9744;49.364;7.484;2023-01-26T11:34:20;15.77;;;10.45;;
19219;SDS011;9744;49.364;7.484;2023-01-26T11:36:57;14.73;;;9.60;;
19219;SDS011;9744;49.364;7.484;2023-01-26T11:39:33;15.10;;;9.68;;
19219;SDS011;9744;49.364;7.484;2023-01-26T11:42:13;16.70;;;9.43;;
19219;SDS011;9744;49.364;7.484;2023-01-26T11:44:49;14.75;;;7.78;;
19219;SDS011;9744;49.364;7.484;2023-01-26T11:47:32;15.48;;;8.52;;
19219;SDS011;9744;49.364;7.484;2023-01-26T11:50:23;14.57;;;8.00;;
19219;SDS011;9744;49.364;7.484;2023-01-26T11:53:01;12.32;;;7.07;;
19219;SDS011;9744;49.364;7.484;2023-01-26T11:55:56;14.57;;;8.02;;
19219;SDS011;9744;49.364;7.484;2023-01-26T11:58:36;15.40;;;7.80;;
19219;SDS011;9744;49.364;7.484;2023-01-26T12:01:10;14.02;;;6.68;;
19219;SDS011;9744;49.364;7.484;2023-01-26T12:03:44;13.38;;;7.63;;
19219;SDS011;9744;49.364;7.484;2023-01-26T12:06:16;20.38;;;10.18;;
19219;SDS011;9744;49.364;7.484;2023-01-26T12:08:47;28.45;;;12.18;;
19219;SDS011;9744;49.364;7.484;2023-01-26T12:11:20;21.40;;;10.68;;
19219;SDS011;9744;49.364;7.484;2023-01-26T12:14:00;18.38;;;9.60;;
19219;SDS011;9744;49.364;7.484;2023-01-26T12:16:34;18.08;;;9.05;;
19219;SDS011;9744;49.364;7.484;2023-01-26T12:21:59;14.50;;;7.82;;
19219;SDS011;9744;49.364;7.484;2023-01-26T12:24:35;17.70;;;8.10;;
19219;SDS011;9744;49.364;7.484;2023-01-26T12:27:05;17.55;;;8.40;;
19219;SDS011;9744;49.364;7.484;2023-01-26T12:29:41;19.35;;;8.35;;
19219;SDS011;9744;49.364;7.484;2023-01-26T12:32:15;18.00;;;8.93;;
19219;SDS011;9744;49.364;7.484;2023-01-26T12:34:43;20.77;;;9.13;;
19219;SDS011;9744;49.364;7.484;2023-01-26T12:37:17;20.90;;;9.13;;
19219;SDS011;9744;49.364;7.484;2023-01-26T12:40:11;18.88;;;8.90;;
19219;SDS011;9744;49.364;7.484;2023-01-26T12:42:48;18.45;;;9.55;;
19219;SDS011;9744;49.364;7.484;2023-01-26T12:45:27;17.40;;;9.30;;
19219;SDS011;9744;49.364;7.484;2023-01-26T12:48:00;22.25;;;9.25;;
19219;SDS011;9744;49.364;7.484;2023-01-26T12:50:38;19.55;;;9.07;;
19219;SDS011;9744;49.364;7.484;2023-01-26T12:53:11;20.45;;;9.82;;
19219;SDS011;9744;49.364;7.484;2023-01-26T12:55:45;16.52;;;9.18;;
19219;SDS011;9744;49.364;7.484;2023-01-26T12:58:15;20.58;;;9.52;;
19219;SDS011;9744;49.364;7.484;2023-01-26T13:00:51;17.65;;;9.55;;
19219;SDS011;9744;49.364;7.484;2023-01-26T13:03:23;20.90;;;9.65;;
19219;SDS011;9744;49.364;7.484;2023-01-26T13:05:55;19.77;;;9.95;;
19219;SDS011;9744;49.364;7.484;2023-01-26T13:14:28;24.33;;;10.63;;
19219;SDS011;9744;49.364;7.484;2023-01-26T13:20:21;24.77;;;11.77;;
19219;SDS011;9744;49.364;7.484;2023-01-26T13:22:54;24.38;;;11.30;;
19219;SDS011;9744;49.364;7.484;2023-01-26T13:25:27;28.30;;;12.05;;
19219;SDS011;9744;49.364;7.484;2023-01-26T13:27:58;26.92;;;11.65;;
19219;SDS011;9744;49.364;7.484;2023-01-26T13:30:28;25.05;;;12.02;;
19219;SDS011;9744;49.364;7.484;2023-01-26T13:33:12;26.45;;;12.68;;
19219;SDS011;9744;49.364;7.484;2023-01-26T13:35:44;26.00;;;12.18;;
19219;SDS011;9744;49.364;7.484;2023-01-26T13:38:14;26.60;;;13.30;;
19219;SDS011;9744;49.364;7.484;2023-01-26T13:40:47;34.08;;;15.38;;
19219;SDS011;9744;49.364;7.484;2023-01-26T13:43:22;32.45;;;13.85;;
19219;SDS011;9744;49.364;7.484;2023-01-26T13:46:02;27.30;;;13.57;;
19219;SDS011;9744;49.364;7.484;2023-01-26T13:48:39;31.25;;;13.80;;
19219;SDS011;9744;49.364;7.484;2023-01-26T13:51:11;34.53;;;15.60;;
19219;SDS011;9744;49.364;7.484;2023-01-26T13:53:42;37.22;;;16.10;;
19219;SDS011;9744;49.364;7.484;2023-01-26T13:56:24;40.67;;;17.83;;
19219;SDS011;9744;49.364;7.484;2023-01-26T13:59:03;42.05;;;18.80;;
19219;SDS011;9744;49.364;7.484;2023-01-26T14:01:39;38.72;;;18.15;;
19219;SDS011;9744;49.364;7.484;2023-01-26T14:04:11;36.60;;;17.23;;
19219;SDS011;9744;49.364;7.484;2023-01-26T14:06:40;36.15;;;16.65;;
19219;SDS011;9744;49.364;7.484;2023-01-26T14:09:12;39.72;;;16.35;;
19219;SDS011;9744;49.364;7.484;2023-01-26T14:11:43;39.45;;;17.13;;
19219;SDS011;9744;49.364;7.484;2023-01-26T14:14:22;28.00;;;14.35;;
19219;SDS011;9744;49.364;7.484;2023-01-26T14:16:51;37.33;;;17.33;;
19219;SDS011;9744;49.364;7.484;2023-01-26T14:19:20;41.60;;;17.40;;
19219;SDS011;9744;49.364;7.484;2023-01-26T14:21:49;39.00;;;17.17;;
19219;SDS011;9744;49.364;7.484;2023-01-26T14:24:23;37.35;;;16.83;;
19219;SDS011;9744;49.364;7.484;2023-01-26T14:26:52;34.00;;;16.60;;
19219;SDS011;9744;49.364;7.484;2023-01-26T14:29:22;33.35;;;16.27;;
19219;SDS011;9744;49.364;7.484;2023-01-26T14:31:51;38.30;;;17.67;;
19219;SDS011;9744;49.364;7.484;2023-01-26T14:34:21;46.92;;;22.08;;
19219;SDS011;9744;49.364;7.484;2023-01-26T14:37:03;44.90;;;20.25;;
19219;SDS011;9744;49.364;7.484;2023-01-26T14:39:32;47.08;;;21.80;;
19219;SDS011;9744;49.364;7.484;2023-01-26T14:42:00;38.25;;;17.45;;
19219;SDS011;9744;49.364;7.484;2023-01-26T14:44:30;45.33;;;18.70;;
19219;SDS011;9744;49.364;7.484;2023-01-26T14:46:58;37.00;;;16.70;;
19219;SDS011;9744;49.364;7.484;2023-01-26T14:49:32;44.20;;;18.50;;
19219;SDS011;9744;49.364;7.484;2023-01-26T14:52:12;69.03;;;25.63;;
19219;SDS011;9744;49.364;7.484;2023-01-26T14:54:43;56.58;;;23.10;;
19219;SDS011;9744;49.364;7.484;2023-01-26T14:57:12;45.38;;;20.10;;
19219;SDS011;9744;49.364;7.484;2023-01-26T14:59:47;41.78;;;18.83;;
19219;SDS011;9744;49.364;7.484;2023-01-26T15:02:17;37.78;;;16.50;;
19219;SDS011;9744;49.364;7.484;2023-01-26T15:04:48;38.90;;;18.33;;
19219;SDS011;9744;49.364;7.484;2023-01-26T15:07:30;36.70;;;18.75;;
19219;SDS011;9744;49.364;7.484;2023-01-26T15:09:59;41.15;;;19.50;;
19219;SDS011;9744;49.364;7.484;2023-01-26T15:12:31;39.10;;;17.30;;
19219;SDS011;9744;49.364;7.484;2023-01-26T15:15:01;30.80;;;15.68;;
19219;SDS011;9744;49.364;7.484;2023-01-26T15:17:29;34.25;;;16.35;;
19219;SDS011;9744;49.364;7.484;2023-01-26T15:20:09;33.30;;;15.45;;
19219;SDS011;9744;49.364;7.484;2023-01-26T15:22:57;39.22;;;19.00;;
19219;SDS011;9744;49.364;7.484;2023-01-26T15:25:25;53.85;;;25.88;;
19219;SDS011;9744;49.364;7.484;2023-01-26T15:27:54;74.07;;;33.78;;
19219;SDS011;9744;49.364;7.484;2023-01-26T15:30:24;62.83;;;27.27;;
19219;SDS011;9744;49.364;7.484;2023-01-26T15:32:53;43.95;;;22.15;;
19219;SDS011;9744;49.364;7.484;2023-01-26T15:35:23;43.55;;;20.52;;
19219;SDS011;9744;49.364;7.484;2023-01-26T15:38:01;44.28;;;19.65;;
19219;SDS011;9744;49.364;7.484;2023-01-26T15:40:29;38.22;;;17.63;;
19219;SDS011;9744;49.364;7.484;2023-01-26T15:43:11;39.20;;;16.40;;
19219;SDS011;9744;49.364;7.484;2023-01-26T15:45:41;34.08;;;16.40;;
19219;SDS011;9744;49.364;7.484;2023-01-26T15:48:13;35.33;;;15.95;;